»·PEaware :: N360BG KMHR-KMFR

N360BG :: KMHR-KMFR

FLIGHT INFORMATION

Flight Status: Arrived
Operator: Privately registered:
United States
More flights under this callsign
Pilot: Brandon G. (13)
Aircraft: BOEING 737-200
(B732)
More flights by this aircraft type
Origin: KMHR Mather
United States
Destination: KMFR Rogue Valley Intl-Medford
United States
More flights between these airports :: More routes between these airports
Route: +SAC J126 OED
File this flight plan on PilotEdge
Remarks:
Altitude:
(Current/Filed)
28,000ft
Speed:
(Current/Filed)
385kts
Departed: 05-Oct-18 11:10 AM
Arrived: 05-Oct-18 12:07 PM
Distance/Time
Traveled:
240nm/0:56
Distance/Time
To Go:
Arrived

Flight Plot

Page will automatically refresh every two minutes.

Flight plan parsing failed; only flown route is shown


Map Options




Map Legend


Flown Route
Filed Route
Departure Airport
Arrival Airport
Navaid (VOR, NDB)
Fix

Horizontal Profiles

Position Reports

Time Latitude Longitude Heading Altitude Ground
Speed
05-Oct-18 11:05 38.561727 -121.296323 264 107ft 0kts
05-Oct-18 11:06 38.561727 -121.296323 264 107ft 0kts
05-Oct-18 11:07 38.561727 -121.296323 264 107ft 0kts
05-Oct-18 11:08 38.561727 -121.296324 264 107ft 0kts
05-Oct-18 11:09 38.561089 -121.295739 69 107ft 21kts
05-Oct-18 11:10 38.565357 -121.286062 86 107ft 33kts
05-Oct-18 11:11 38.564025 -121.282797 149 107ft 0kts
05-Oct-18 11:12 38.560238 -121.286634 234 107ft 83kts
05-Oct-18 11:13 38.533285 -121.331890 230 2067ft 184kts
05-Oct-18 11:14 38.499741 -121.383988 243 5070ft 207kts
05-Oct-18 11:15 38.468513 -121.465739 251 7414ft 280kts
05-Oct-18 11:16 38.472226 -121.555469 324 10212ft 274kts
05-Oct-18 11:17 38.540635 -121.596864 338 12767ft 281kts
05-Oct-18 11:18 38.615852 -121.629901 348 14337ft 313kts
05-Oct-18 11:19 38.704721 -121.658746 342 15651ft 341kts
05-Oct-18 11:20 38.796101 -121.694849 341 17418ft 349kts
05-Oct-18 11:21 38.889021 -121.732577 341 18954ft 355kts
05-Oct-18 11:22 38.982606 -121.770835 340 20364ft 359kts
05-Oct-18 11:23 39.078096 -121.810097 339 21581ft 364kts
05-Oct-18 11:24 39.172218 -121.848594 339 22634ft 369kts
05-Oct-18 11:25 39.268730 -121.888301 338 23348ft 346kts
05-Oct-18 11:26 39.358630 -121.925748 338 23327ft 329kts
05-Oct-18 11:27 39.442509 -121.960680 338 23325ft 328kts
05-Oct-18 11:28 39.534680 -121.998883 338 24275ft 357kts
05-Oct-18 11:29 39.627919 -122.037724 338 26125ft 352kts
05-Oct-18 11:30 39.721783 -122.077085 338 27368ft 360kts
05-Oct-18 11:31 39.817368 -122.117322 338 28156ft 375kts
05-Oct-18 11:32 39.919772 -122.161138 338 28154ft 404kts
05-Oct-18 11:33 40.028737 -122.208490 338 28140ft 418kts
05-Oct-18 11:34 40.136117 -122.255447 340 28149ft 419kts
05-Oct-18 11:35 40.249490 -122.291310 343 28144ft 423kts
05-Oct-18 11:36 40.364183 -122.323075 344 28138ft 424kts
05-Oct-18 11:37 40.479060 -122.354176 344 28134ft 424kts
05-Oct-18 11:38 40.594113 -122.385320 344 28133ft 424kts
05-Oct-18 11:39 40.709700 -122.416694 344 28131ft 424kts
05-Oct-18 11:40 40.824556 -122.447921 344 27581ft 422kts
05-Oct-18 11:41 40.937904 -122.478909 344 26351ft 414kts
05-Oct-18 11:42 41.049433 -122.509471 344 24737ft 411kts
05-Oct-18 11:43 41.154549 -122.538178 344 22844ft 402kts
05-Oct-18 11:44 41.260860 -122.567503 344 20302ft 379kts
05-Oct-18 11:45 41.361849 -122.595545 344 17631ft 368kts
05-Oct-18 11:46 41.459831 -122.622853 345 15076ft 357kts
05-Oct-18 11:47 41.554753 -122.649394 345 12610ft 346kts
05-Oct-18 11:48 41.642306 -122.674932 344 12014ft 310kts
05-Oct-18 11:49 41.724149 -122.698245 344 12018ft 300kts
05-Oct-18 11:50 41.806387 -122.721501 344 12020ft 307kts
05-Oct-18 11:51 41.890341 -122.745170 344 12019ft 311kts
05-Oct-18 11:52 41.970364 -122.785854 334 12017ft 311kts
05-Oct-18 11:53 42.050094 -122.831319 334 12012ft 313kts
05-Oct-18 11:54 42.129110 -122.876412 334 12011ft 315kts
05-Oct-18 11:55 42.202087 -122.917561 334 11622ft 265kts
05-Oct-18 11:56 42.269605 -122.956544 334 10143ft 262kts
05-Oct-18 11:57 42.334691 -122.995903 334 9000ft 247kts
05-Oct-18 11:58 42.392356 -123.031164 334 9025ft 233kts
05-Oct-18 11:59 42.458490 -123.071937 334 9010ft 278kts
05-Oct-18 12:00 42.524617 -123.112919 334 8320ft 255kts
05-Oct-18 12:01 42.590355 -123.132658 29 7016ft 253kts
05-Oct-18 12:02 42.613553 -123.053786 78 6991ft 210kts
05-Oct-18 12:03 42.585956 -122.987440 142 6352ft 216kts
05-Oct-18 12:04 42.532021 -122.955929 158 5085ft 210kts
05-Oct-18 12:05 42.478250 -122.927504 158 3214ft 192kts
05-Oct-18 12:06 42.445726 -122.910408 158 2590ft 136kts
05-Oct-18 12:07 42.401399 -122.887138 158 1662ft 142kts
05-Oct-18 12:08 42.375369 -122.873483 158 1314ft 66kts
05-Oct-18 12:09 42.369378 -122.871710 221 1322ft 0kts
05-Oct-18 12:10 42.368052 -122.872746 190 1322ft 0kts
05-Oct-18 12:11 42.368052 -122.872746 190 1322ft 0kts
05-Oct-18 12:12 42.368052 -122.872746 190 1322ft 0kts
05-Oct-18 12:13 42.368052 -122.872746 190 1322ft 0kts
05-Oct-18 12:14 42.368052 -122.872746 190 1322ft 0kts
05-Oct-18 12:15 42.368052 -122.872746 190 1322ft 0kts
05-Oct-18 12:16 42.368052 -122.872746 190 1322ft 0kts
05-Oct-18 12:17 42.368052 -122.872746 190 1322ft 0kts
05-Oct-18 12:18 42.368052 -122.872746 190 1322ft 0kts

Navigation Log

Ident Type
Flight plan parsing failed, navigation log unavailable